sensor_id;sensor_type;location;lat;lon;timestamp;temperature;humidity
48994;DHT22;34804;49.214;12.276;2023-04-25T00:01:47;5.40;88.90
48994;DHT22;34804;49.214;12.276;2023-04-25T00:04:13;5.40;89.00
48994;DHT22;34804;49.214;12.276;2023-04-25T00:06:41;5.40;89.30
48994;DHT22;34804;49.214;12.276;2023-04-25T00:09:07;5.50;89.30
48994;DHT22;34804;49.214;12.276;2023-04-25T00:11:36;5.40;89.30
48994;DHT22;34804;49.214;12.276;2023-04-25T00:14:04;5.40;89.40
48994;DHT22;34804;49.214;12.276;2023-04-25T00:16:31;5.50;89.40
48994;DHT22;34804;49.214;12.276;2023-04-25T00:19:01;5.40;89.20
48994;DHT22;34804;49.214;12.276;2023-04-25T00:21:30;5.50;89.20
48994;DHT22;34804;49.214;12.276;2023-04-25T00:23:58;5.60;89.10
48994;DHT22;34804;49.214;12.276;2023-04-25T00:26:25;5.50;89.10
48994;DHT22;34804;49.214;12.276;2023-04-25T00:28:52;5.50;89.40
48994;DHT22;34804;49.214;12.276;2023-04-25T00:31:19;5.50;89.20
48994;DHT22;34804;49.214;12.276;2023-04-25T00:33:45;5.50;89.30
48994;DHT22;34804;49.214;12.276;2023-04-25T00:36:13;5.60;89.10
48994;DHT22;34804;49.214;12.276;2023-04-25T00:38:40;5.60;89.30
48994;DHT22;34804;49.214;12.276;2023-04-25T00:41:07;5.60;89.20
48994;DHT22;34804;49.214;12.276;2023-04-25T00:43:36;5.60;89.30
48994;DHT22;34804;49.214;12.276;2023-04-25T00:46:03;5.70;89.50
48994;DHT22;34804;49.214;12.276;2023-04-25T00:48:30;5.70;89.20
48994;DHT22;34804;49.214;12.276;2023-04-25T00:50:58;5.80;89.40
48994;DHT22;34804;49.214;12.276;2023-04-25T00:53:27;5.80;89.30
48994;DHT22;34804;49.214;12.276;2023-04-25T00:55:54;5.80;89.30
48994;DHT22;34804;49.214;12.276;2023-04-25T00:58:22;5.80;89.30
48994;DHT22;34804;49.214;12.276;2023-04-25T01:00:51;5.70;89.40
48994;DHT22;34804;49.214;12.276;2023-04-25T01:03:19;5.70;89.20
48994;DHT22;34804;49.214;12.276;2023-04-25T01:05:50;5.70;89.50
48994;DHT22;34804;49.214;12.276;2023-04-25T01:08:17;5.70;89.60
48994;DHT22;34804;49.214;12.276;2023-04-25T01:10:44;5.80;89.30
48994;DHT22;34804;49.214;12.276;2023-04-25T01:13:11;5.80;89.50
48994;DHT22;34804;49.214;12.276;2023-04-25T01:15:38;5.80;89.30
48994;DHT22;34804;49.214;12.276;2023-04-25T01:18:05;5.80;89.40
48994;DHT22;34804;49.214;12.276;2023-04-25T01:20:33;5.80;89.50
48994;DHT22;34804;49.214;12.276;2023-04-25T01:23:01;5.70;89.50
48994;DHT22;34804;49.214;12.276;2023-04-25T01:25:30;5.70;89.60
48994;DHT22;34804;49.214;12.276;2023-04-25T01:27:58;5.70;89.80
48994;DHT22;34804;49.214;12.276;2023-04-25T01:30:26;5.80;89.70
48994;DHT22;34804;49.214;12.276;2023-04-25T01:32:55;5.80;89.60
48994;DHT22;34804;49.214;12.276;2023-04-25T01:35:23;5.80;89.40
48994;DHT22;34804;49.214;12.276;2023-04-25T01:37:52;5.80;89.80
48994;DHT22;34804;49.214;12.276;2023-04-25T01:40:20;5.70;89.30
48994;DHT22;34804;49.214;12.276;2023-04-25T01:42:48;5.80;90.10
48994;DHT22;34804;49.214;12.276;2023-04-25T01:45:15;5.80;89.90
48994;DHT22;34804;49.214;12.276;2023-04-25T01:47:42;5.80;90.30
48994;DHT22;34804;49.214;12.276;2023-04-25T01:50:10;5.90;90.20
48994;DHT22;34804;49.214;12.276;2023-04-25T01:52:38;5.90;90.40
48994;DHT22;34804;49.214;12.276;2023-04-25T01:55:06;5.90;90.20
48994;DHT22;34804;49.214;12.276;2023-04-25T01:57:33;6.00;90.20
48994;DHT22;34804;49.214;12.276;2023-04-25T02:00:02;6.10;90.00
48994;DHT22;34804;49.214;12.276;2023-04-25T02:02:30;6.10;89.50
48994;DHT22;34804;49.214;12.276;2023-04-25T02:04:57;6.10;89.30
48994;DHT22;34804;49.214;12.276;2023-04-25T02:07:24;6.10;89.60
48994;DHT22;34804;49.214;12.276;2023-04-25T02:09:51;6.20;89.20
48994;DHT22;34804;49.214;12.276;2023-04-25T02:12:18;6.20;88.80
48994;DHT22;34804;49.214;12.276;2023-04-25T02:14:44;6.10;88.80
48994;DHT22;34804;49.214;12.276;2023-04-25T02:17:11;6.10;89.10
48994;DHT22;34804;49.214;12.276;2023-04-25T02:19:39;6.10;89.60
48994;DHT22;34804;49.214;12.276;2023-04-25T02:22:06;6.10;89.60
48994;DHT22;34804;49.214;12.276;2023-04-25T02:24:33;6.10;89.70
48994;DHT22;34804;49.214;12.276;2023-04-25T02:27:01;6.10;89.80
48994;DHT22;34804;49.214;12.276;2023-04-25T02:29:29;6.20;89.60
48994;DHT22;34804;49.214;12.276;2023-04-25T02:31:56;6.30;89.60
48994;DHT22;34804;49.214;12.276;2023-04-25T02:34:23;6.30;89.00
48994;DHT22;34804;49.214;12.276;2023-04-25T02:36:50;6.40;88.70
48994;DHT22;34804;49.214;12.276;2023-04-25T02:39:18;6.40;88.90
48994;DHT22;34804;49.214;12.276;2023-04-25T02:41:45;6.40;89.20
48994;DHT22;34804;49.214;12.276;2023-04-25T02:44:14;6.40;89.00
48994;DHT22;34804;49.214;12.276;2023-04-25T02:46:41;6.40;89.00
48994;DHT22;34804;49.214;12.276;2023-04-25T02:49:08;6.50;89.30
48994;DHT22;34804;49.214;12.276;2023-04-25T02:51:35;6.60;88.90
48994;DHT22;34804;49.214;12.276;2023-04-25T02:54:02;6.60;88.60
48994;DHT22;34804;49.214;12.276;2023-04-25T02:56:29;6.70;87.90
48994;DHT22;34804;49.214;12.276;2023-04-25T02:58:55;6.70;87.70
48994;DHT22;34804;49.214;12.276;2023-04-25T03:01:22;6.70;88.20
48994;DHT22;34804;49.214;12.276;2023-04-25T03:03:49;6.70;87.70
48994;DHT22;34804;49.214;12.276;2023-04-25T03:06:16;6.70;88.10
48994;DHT22;34804;49.214;12.276;2023-04-25T03:08:43;6.70;88.20
48994;DHT22;34804;49.214;12.276;2023-04-25T03:11:10;6.80;87.90
48994;DHT22;34804;49.214;12.276;2023-04-25T03:13:37;6.90;87.40
48994;DHT22;34804;49.214;12.276;2023-04-25T03:16:04;7.00;87.40
48994;DHT22;34804;49.214;12.276;2023-04-25T03:18:31;6.90;87.40
48994;DHT22;34804;49.214;12.276;2023-04-25T03:20:58;6.90;87.10
48994;DHT22;34804;49.214;12.276;2023-04-25T03:23:26;6.80;87.50
48994;DHT22;34804;49.214;12.276;2023-04-25T03:25:53;6.80;87.80
48994;DHT22;34804;49.214;12.276;2023-04-25T03:28:20;6.90;87.60
48994;DHT22;34804;49.214;12.276;2023-04-25T03:30:47;6.90;87.10
48994;DHT22;34804;49.214;12.276;2023-04-25T03:33:14;7.00;86.80
48994;DHT22;34804;49.214;12.276;2023-04-25T03:35:41;7.10;86.50
48994;DHT22;34804;49.214;12.276;2023-04-25T03:38:09;7.10;86.80
48994;DHT22;34804;49.214;12.276;2023-04-25T03:40:36;7.10;86.60
48994;DHT22;34804;49.214;12.276;2023-04-25T03:43:03;7.10;86.90
48994;DHT22;34804;49.214;12.276;2023-04-25T03:45:30;7.20;86.50
48994;DHT22;34804;49.214;12.276;2023-04-25T03:47:58;7.20;85.70
48994;DHT22;34804;49.214;12.276;2023-04-25T03:50:25;7.20;85.90
48994;DHT22;34804;49.214;12.276;2023-04-25T03:52:51;7.20;85.90
48994;DHT22;34804;49.214;12.276;2023-04-25T03:55:18;7.10;86.10
48994;DHT22;34804;49.214;12.276;2023-04-25T03:57:45;7.00;86.20
48994;DHT22;34804;49.214;12.276;2023-04-25T04:00:12;6.80;86.50
48994;DHT22;34804;49.214;12.276;2023-04-25T04:02:39;6.80;87.00
48994;DHT22;34804;49.214;12.276;2023-04-25T04:05:11;6.70;87.30
48994;DHT22;34804;49.214;12.276;2023-04-25T04:07:38;6.60;87.80
48994;DHT22;34804;49.214;12.276;2023-04-25T04:10:07;6.60;88.20
48994;DHT22;34804;49.214;12.276;2023-04-25T04:12:34;6.50;87.50
48994;DHT22;34804;49.214;12.276;2023-04-25T04:15:02;6.70;87.20
48994;DHT22;34804;49.214;12.276;2023-04-25T04:17:30;6.80;86.90
48994;DHT22;34804;49.214;12.276;2023-04-25T04:19:57;6.90;85.90
48994;DHT22;34804;49.214;12.276;2023-04-25T04:22:24;6.80;86.00
48994;DHT22;34804;49.214;12.276;2023-04-25T04:24:51;6.90;86.10
48994;DHT22;34804;49.214;12.276;2023-04-25T04:27:18;6.90;86.00
48994;DHT22;34804;49.214;12.276;2023-04-25T04:29:49;6.90;86.00
48994;DHT22;34804;49.214;12.276;2023-04-25T04:32:16;7.00;85.90
48994;DHT22;34804;49.214;12.276;2023-04-25T04:34:44;7.10;85.40
48994;DHT22;34804;49.214;12.276;2023-04-25T04:37:11;7.10;85.70
48994;DHT22;34804;49.214;12.276;2023-04-25T04:39:40;7.20;85.70
48994;DHT22;34804;49.214;12.276;2023-04-25T04:42:07;7.20;85.90
48994;DHT22;34804;49.214;12.276;2023-04-25T04:44:35;7.20;85.60
48994;DHT22;34804;49.214;12.276;2023-04-25T04:47:02;7.20;85.90
48994;DHT22;34804;49.214;12.276;2023-04-25T04:49:32;7.20;85.40
48994;DHT22;34804;49.214;12.276;2023-04-25T04:51:59;7.30;85.70
48994;DHT22;34804;49.214;12.276;2023-04-25T04:54:27;7.40;85.10
48994;DHT22;34804;49.214;12.276;2023-04-25T04:56:54;7.40;84.90
48994;DHT22;34804;49.214;12.276;2023-04-25T04:59:21;7.50;84.50
48994;DHT22;34804;49.214;12.276;2023-04-25T05:01:47;7.60;83.90
48994;DHT22;34804;49.214;12.276;2023-04-25T05:04:14;7.60;83.90
48994;DHT22;34804;49.214;12.276;2023-04-25T05:06:41;7.60;84.10
48994;DHT22;34804;49.214;12.276;2023-04-25T05:09:08;7.80;83.70
48994;DHT22;34804;49.214;12.276;2023-04-25T05:11:35;7.80;83.60
48994;DHT22;34804;49.214;12.276;2023-04-25T05:14:02;7.90;83.70
48994;DHT22;34804;49.214;12.276;2023-04-25T05:16:28;8.00;84.20
48994;DHT22;34804;49.214;12.276;2023-04-25T05:18:55;8.00;84.40
48994;DHT22;34804;49.214;12.276;2023-04-25T05:21:22;8.00;83.80
48994;DHT22;34804;49.214;12.276;2023-04-25T05:23:49;8.10;84.10
48994;DHT22;34804;49.214;12.276;2023-04-25T05:26:16;8.10;83.90
48994;DHT22;34804;49.214;12.276;2023-04-25T05:28:43;8.10;83.40
48994;DHT22;34804;49.214;12.276;2023-04-25T05:31:10;8.10;83.90
48994;DHT22;34804;49.214;12.276;2023-04-25T05:33:37;8.20;83.20
48994;DHT22;34804;49.214;12.276;2023-04-25T05:36:04;8.30;83.10
48994;DHT22;34804;49.214;12.276;2023-04-25T05:38:31;8.30;83.00
48994;DHT22;34804;49.214;12.276;2023-04-25T05:41:00;8.30;82.20
48994;DHT22;34804;49.214;12.276;2023-04-25T05:43:27;8.30;82.20
48994;DHT22;34804;49.214;12.276;2023-04-25T05:45:54;8.30;81.40
48994;DHT22;34804;49.214;12.276;2023-04-25T05:48:21;8.10;82.40
48994;DHT22;34804;49.214;12.276;2023-04-25T05:50:48;8.10;81.00
48994;DHT22;34804;49.214;12.276;2023-04-25T05:53:14;8.10;81.70
48994;DHT22;34804;49.214;12.276;2023-04-25T05:55:41;8.10;81.60
48994;DHT22;34804;49.214;12.276;2023-04-25T05:58:08;8.10;81.70
48994;DHT22;34804;49.214;12.276;2023-04-25T06:00:35;8.20;80.90
48994;DHT22;34804;49.214;12.276;2023-04-25T06:03:02;8.20;79.70
48994;DHT22;34804;49.214;12.276;2023-04-25T06:05:29;8.20;81.30
48994;DHT22;34804;49.214;12.276;2023-04-25T06:07:56;8.20;82.60
48994;DHT22;34804;49.214;12.276;2023-04-25T06:10:22;8.30;81.30
48994;DHT22;34804;49.214;12.276;2023-04-25T06:12:49;8.40;82.20
48994;DHT22;34804;49.214;12.276;2023-04-25T06:15:16;8.50;81.70
48994;DHT22;34804;49.214;12.276;2023-04-25T06:17:55;8.60;80.80
48994;DHT22;34804;49.214;12.276;2023-04-25T06:20:22;8.70;78.90
48994;DHT22;34804;49.214;12.276;2023-04-25T06:22:50;8.80;80.20
48994;DHT22;34804;49.214;12.276;2023-04-25T06:25:17;8.90;79.90
48994;DHT22;34804;49.214;12.276;2023-04-25T06:27:44;8.90;78.60
48994;DHT22;34804;49.214;12.276;2023-04-25T06:30:11;9.00;79.40
48994;DHT22;34804;49.214;12.276;2023-04-25T06:32:39;9.20;79.70
48994;DHT22;34804;49.214;12.276;2023-04-25T06:35:06;9.20;80.20
48994;DHT22;34804;49.214;12.276;2023-04-25T06:37:33;9.30;76.70
48994;DHT22;34804;49.214;12.276;2023-04-25T06:39:59;9.30;79.90
48994;DHT22;34804;49.214;12.276;2023-04-25T06:42:26;9.40;77.00
48994;DHT22;34804;49.214;12.276;2023-04-25T06:44:53;9.50;76.10
48994;DHT22;34804;49.214;12.276;2023-04-25T06:47:20;9.40;74.70
48994;DHT22;34804;49.214;12.276;2023-04-25T06:49:47;9.30;75.00
48994;DHT22;34804;49.214;12.276;2023-04-25T06:52:14;9.20;77.00
48994;DHT22;34804;49.214;12.276;2023-04-25T06:54:41;9.40;77.60
48994;DHT22;34804;49.214;12.276;2023-04-25T06:57:08;9.40;75.70
48994;DHT22;34804;49.214;12.276;2023-04-25T06:59:35;9.40;77.20
48994;DHT22;34804;49.214;12.276;2023-04-25T07:02:02;9.30;76.80
48994;DHT22;34804;49.214;12.276;2023-04-25T07:04:30;9.30;77.20
48994;DHT22;34804;49.214;12.276;2023-04-25T07:06:57;9.30;77.30
48994;DHT22;34804;49.214;12.276;2023-04-25T07:09:25;9.30;76.90
48994;DHT22;34804;49.214;12.276;2023-04-25T07:11:51;9.40;78.80
48994;DHT22;34804;49.214;12.276;2023-04-25T07:14:19;9.30;76.20
48994;DHT22;34804;49.214;12.276;2023-04-25T07:16:46;9.30;78.80
48994;DHT22;34804;49.214;12.276;2023-04-25T07:19:13;9.30;76.80
48994;DHT22;34804;49.214;12.276;2023-04-25T07:21:40;9.40;77.70
48994;DHT22;34804;49.214;12.276;2023-04-25T07:24:07;9.60;77.30
48994;DHT22;34804;49.214;12.276;2023-04-25T07:26:34;9.70;77.40
48994;DHT22;34804;49.214;12.276;2023-04-25T07:29:01;9.80;75.90
48994;DHT22;34804;49.214;12.276;2023-04-25T07:31:28;9.70;75.70
48994;DHT22;34804;49.214;12.276;2023-04-25T07:33:55;9.80;75.40
48994;DHT22;34804;49.214;12.276;2023-04-25T07:36:21;9.80;75.20
48994;DHT22;34804;49.214;12.276;2023-04-25T07:38:48;9.80;75.20
48994;DHT22;34804;49.214;12.276;2023-04-25T07:41:15;9.80;74.90
48994;DHT22;34804;49.214;12.276;2023-04-25T07:43:42;9.90;74.40
48994;DHT22;34804;49.214;12.276;2023-04-25T07:46:09;9.80;73.50
48994;DHT22;34804;49.214;12.276;2023-04-25T07:48:36;9.60;74.30
48994;DHT22;34804;49.214;12.276;2023-04-25T07:51:03;9.50;73.50
48994;DHT22;34804;49.214;12.276;2023-04-25T07:53:31;9.40;75.50
48994;DHT22;34804;49.214;12.276;2023-04-25T07:55:59;9.30;76.30
48994;DHT22;34804;49.214;12.276;2023-04-25T07:58:25;9.40;77.10
48994;DHT22;34804;49.214;12.276;2023-04-25T08:00:52;9.30;75.60
48994;DHT22;34804;49.214;12.276;2023-04-25T08:03:19;9.40;76.10
48994;DHT22;34804;49.214;12.276;2023-04-25T08:05:46;9.50;76.00
48994;DHT22;34804;49.214;12.276;2023-04-25T08:08:13;9.60;74.30
48994;DHT22;34804;49.214;12.276;2023-04-25T08:10:40;9.70;73.90
48994;DHT22;34804;49.214;12.276;2023-04-25T08:13:07;9.90;75.40
48994;DHT22;34804;49.214;12.276;2023-04-25T08:15:33;10.10;73.80
48994;DHT22;34804;49.214;12.276;2023-04-25T08:18:00;10.00;73.70
48994;DHT22;34804;49.214;12.276;2023-04-25T08:20:27;10.10;74.20
48994;DHT22;34804;49.214;12.276;2023-04-25T08:22:54;10.30;73.40
48994;DHT22;34804;49.214;12.276;2023-04-25T08:25:22;10.50;73.10
48994;DHT22;34804;49.214;12.276;2023-04-25T08:27:49;10.60;73.10
48994;DHT22;34804;49.214;12.276;2023-04-25T08:30:15;10.40;71.60
48994;DHT22;34804;49.214;12.276;2023-04-25T08:32:42;10.40;73.00
48994;DHT22;34804;49.214;12.276;2023-04-25T08:35:10;10.70;72.50
48994;DHT22;34804;49.214;12.276;2023-04-25T08:37:36;10.50;71.00
48994;DHT22;34804;49.214;12.276;2023-04-25T08:40:04;10.60;73.20
48994;DHT22;34804;49.214;12.276;2023-04-25T08:42:34;10.70;69.80
48994;DHT22;34804;49.214;12.276;2023-04-25T08:45:03;10.80;73.70
48994;DHT22;34804;49.214;12.276;2023-04-25T08:47:33;10.80;73.90
48994;DHT22;34804;49.214;12.276;2023-04-25T08:50:03;10.50;73.60
48994;DHT22;34804;49.214;12.276;2023-04-25T08:52:37;10.30;74.40
48994;DHT22;34804;49.214;12.276;2023-04-25T08:55:09;10.10;77.10
48994;DHT22;34804;49.214;12.276;2023-04-25T08:57:36;10.10;77.00
48994;DHT22;34804;49.214;12.276;2023-04-25T09:00:05;10.20;77.50
48994;DHT22;34804;49.214;12.276;2023-04-25T09:02:33;10.20;76.60
48994;DHT22;34804;49.214;12.276;2023-04-25T09:05:02;10.40;75.90
48994;DHT22;34804;49.214;12.276;2023-04-25T09:07:30;10.50;75.80
48994;DHT22;34804;49.214;12.276;2023-04-25T09:09:58;10.40;75.20
48994;DHT22;34804;49.214;12.276;2023-04-25T09:12:30;10.30;74.00
48994;DHT22;34804;49.214;12.276;2023-04-25T09:15:04;10.50;76.30
48994;DHT22;34804;49.214;12.276;2023-04-25T09:17:33;11.00;76.20
48994;DHT22;34804;49.214;12.276;2023-04-25T09:20:07;11.00;73.70
48994;DHT22;34804;49.214;12.276;2023-04-25T09:22:36;11.20;75.30
48994;DHT22;34804;49.214;12.276;2023-04-25T09:25:10;11.10;73.60
48994;DHT22;34804;49.214;12.276;2023-04-25T09:27:52;10.60;73.30
48994;DHT22;34804;49.214;12.276;2023-04-25T09:30:29;10.30;74.00
48994;DHT22;34804;49.214;12.276;2023-04-25T09:32:59;10.10;75.10
48994;DHT22;34804;49.214;12.276;2023-04-25T09:35:38;9.80;75.50
48994;DHT22;34804;49.214;12.276;2023-04-25T09:38:13;9.60;76.90
48994;DHT22;34804;49.214;12.276;2023-04-25T09:40:45;9.50;78.70
48994;DHT22;34804;49.214;12.276;2023-04-25T09:43:20;9.30;77.90
48994;DHT22;34804;49.214;12.276;2023-04-25T09:45:48;9.20;78.60
48994;DHT22;34804;49.214;12.276;2023-04-25T09:48:22;9.20;80.00
48994;DHT22;34804;49.214;12.276;2023-04-25T09:53:39;9.10;77.80
48994;DHT22;34804;49.214;12.276;2023-04-25T09:56:08;8.90;78.40
48994;DHT22;34804;49.214;12.276;2023-04-25T09:58:37;9.10;78.70
48994;DHT22;34804;49.214;12.276;2023-04-25T10:01:07;9.00;76.80
48994;DHT22;34804;49.214;12.276;2023-04-25T10:03:36;8.80;77.00
48994;DHT22;34804;49.214;12.276;2023-04-25T10:06:07;8.80;78.50
48994;DHT22;34804;49.214;12.276;2023-04-25T10:08:36;9.00;77.00
48994;DHT22;34804;49.214;12.276;2023-04-25T10:11:05;8.80;76.60
48994;DHT22;34804;49.214;12.276;2023-04-25T10:13:33;8.80;76.70
48994;DHT22;34804;49.214;12.276;2023-04-25T10:16:04;8.70;77.20
48994;DHT22;34804;49.214;12.276;2023-04-25T10:18:32;8.80;76.80
48994;DHT22;34804;49.214;12.276;2023-04-25T10:21:01;9.10;77.30
48994;DHT22;34804;49.214;12.276;2023-04-25T10:23:30;9.30;75.50
48994;DHT22;34804;49.214;12.276;2023-04-25T10:25:58;9.70;75.40
48994;DHT22;34804;49.214;12.276;2023-04-25T10:28:26;10.30;74.10
48994;DHT22;34804;49.214;12.276;2023-04-25T10:31:07;10.80;73.50
48994;DHT22;34804;49.214;12.276;2023-04-25T10:33:37;11.10;74.50
48994;DHT22;34804;49.214;12.276;2023-04-25T10:38:45;10.70;72.50
48994;DHT22;34804;49.214;12.276;2023-04-25T10:41:13;10.90;71.10
48994;DHT22;34804;49.214;12.276;2023-04-25T10:43:42;11.40;69.90
48994;DHT22;34804;49.214;12.276;2023-04-25T10:48:48;11.80;68.30
48994;DHT22;34804;49.214;12.276;2023-04-25T10:51:23;11.80;70.70
48994;DHT22;34804;49.214;12.276;2023-04-25T10:56:41;11.90;70.30
48994;DHT22;34804;49.214;12.276;2023-04-25T10:59:18;11.80;68.40
48994;DHT22;34804;49.214;12.276;2023-04-25T11:01:48;12.00;68.30
48994;DHT22;34804;49.214;12.276;2023-04-25T11:04:29;12.40;67.90
48994;DHT22;34804;49.214;12.276;2023-04-25T11:09:34;12.50;69.10
48994;DHT22;34804;49.214;12.276;2023-04-25T11:12:01;12.70;65.20
48994;DHT22;34804;49.214;12.276;2023-04-25T11:14:28;12.60;63.80
48994;DHT22;34804;49.214;12.276;2023-04-25T11:16:57;13.20;67.30
48994;DHT22;34804;49.214;12.276;2023-04-25T11:19:27;13.40;65.40
48994;DHT22;34804;49.214;12.276;2023-04-25T11:21:55;13.70;60.80
48994;DHT22;34804;49.214;12.276;2023-04-25T11:24:30;13.80;60.00
48994;DHT22;34804;49.214;12.276;2023-04-25T11:26:58;13.40;63.00
48994;DHT22;34804;49.214;12.276;2023-04-25T11:29:29;13.10;60.00
48994;DHT22;34804;49.214;12.276;2023-04-25T11:31:57;13.40;61.50
48994;DHT22;34804;49.214;12.276;2023-04-25T11:34:25;13.20;59.50
48994;DHT22;34804;49.214;12.276;2023-04-25T11:36:53;12.50;60.10
48994;DHT22;34804;49.214;12.276;2023-04-25T11:39:20;12.30;64.60
48994;DHT22;34804;49.214;12.276;2023-04-25T11:41:48;12.00;63.30
48994;DHT22;34804;49.214;12.276;2023-04-25T11:44:19;11.90;64.60
48994;DHT22;34804;49.214;12.276;2023-04-25T11:46:46;11.80;65.60
48994;DHT22;34804;49.214;12.276;2023-04-25T11:49:17;11.70;63.00
48994;DHT22;34804;49.214;12.276;2023-04-25T11:51:48;12.40;65.40
48994;DHT22;34804;49.214;12.276;2023-04-25T11:54:15;12.60;61.50
48994;DHT22;34804;49.214;12.276;2023-04-25T11:56:45;12.30;62.50
48994;DHT22;34804;49.214;12.276;2023-04-25T11:59:15;12.70;62.60
48994;DHT22;34804;49.214;12.276;2023-04-25T12:01:50;12.60;61.80
48994;DHT22;34804;49.214;12.276;2023-04-25T12:04:23;12.10;60.40
48994;DHT22;34804;49.214;12.276;2023-04-25T12:06:51;12.00;61.70
48994;DHT22;34804;49.214;12.276;2023-04-25T12:09:21;12.00;63.50
48994;DHT22;34804;49.214;12.276;2023-04-25T12:11:55;12.00;61.70
48994;DHT22;34804;49.214;12.276;2023-04-25T12:14:26;11.90;62.20
48994;DHT22;34804;49.214;12.276;2023-04-25T12:16:58;11.60;62.90
48994;DHT22;34804;49.214;12.276;2023-04-25T12:19:31;11.70;63.80
48994;DHT22;34804;49.214;12.276;2023-04-25T12:21:58;11.80;65.60
48994;DHT22;34804;49.214;12.276;2023-04-25T12:24:26;12.60;62.50
48994;DHT22;34804;49.214;12.276;2023-04-25T12:27:03;13.80;58.20
48994;DHT22;34804;49.214;12.276;2023-04-25T12:29:32;14.40;55.10
48994;DHT22;34804;49.214;12.276;2023-04-25T12:32:14;14.20;58.30
48994;DHT22;34804;49.214;12.276;2023-04-25T12:34:42;13.50;57.20
48994;DHT22;34804;49.214;12.276;2023-04-25T12:37:09;13.60;58.60
48994;DHT22;34804;49.214;12.276;2023-04-25T12:39:36;13.20;60.10
48994;DHT22;34804;49.214;12.276;2023-04-25T12:42:03;12.70;61.30
48994;DHT22;34804;49.214;12.276;2023-04-25T12:44:34;12.30;61.40
48994;DHT22;34804;49.214;12.276;2023-04-25T12:47:00;12.30;63.20
48994;DHT22;34804;49.214;12.276;2023-04-25T12:49:28;12.30;63.60
48994;DHT22;34804;49.214;12.276;2023-04-25T12:51:54;12.30;61.90
48994;DHT22;34804;49.214;12.276;2023-04-25T12:54:21;13.30;62.20
48994;DHT22;34804;49.214;12.276;2023-04-25T12:56:48;13.30;59.30
48994;DHT22;34804;49.214;12.276;2023-04-25T12:59:17;13.10;61.40
48994;DHT22;34804;49.214;12.276;2023-04-25T13:01:44;13.90;57.40
48994;DHT22;34804;49.214;12.276;2023-04-25T13:04:12;14.30;57.60
48994;DHT22;34804;49.214;12.276;2023-04-25T13:06:39;14.00;57.70
48994;DHT22;34804;49.214;12.276;2023-04-25T13:09:06;13.00;54.30
48994;DHT22;34804;49.214;12.276;2023-04-25T13:11:33;12.50;57.20
48994;DHT22;34804;49.214;12.276;2023-04-25T13:14:00;12.30;57.50
48994;DHT22;34804;49.214;12.276;2023-04-25T13:16:28;11.80;59.10
48994;DHT22;34804;49.214;12.276;2023-04-25T13:18:55;11.60;60.80
48994;DHT22;34804;49.214;12.276;2023-04-25T13:21:23;11.50;65.20
48994;DHT22;34804;49.214;12.276;2023-04-25T13:26:26;11.30;65.60
48994;DHT22;34804;49.214;12.276;2023-04-25T13:28:52;11.20;66.30
48994;DHT22;34804;49.214;12.276;2023-04-25T13:31:19;11.30;65.90
48994;DHT22;34804;49.214;12.276;2023-04-25T13:33:47;11.30;64.40
48994;DHT22;34804;49.214;12.276;2023-04-25T13:36:14;11.40;65.90
48994;DHT22;34804;49.214;12.276;2023-04-25T13:38:41;11.50;63.50
48994;DHT22;34804;49.214;12.276;2023-04-25T13:41:11;12.30;62.30
48994;DHT22;34804;49.214;12.276;2023-04-25T13:43:42;12.00;61.40
48994;DHT22;34804;49.214;12.276;2023-04-25T13:46:09;11.60;63.60
48994;DHT22;34804;49.214;12.276;2023-04-25T13:48:56;11.30;63.90
48994;DHT22;34804;49.214;12.276;2023-04-25T13:51:37;11.10;66.40
48994;DHT22;34804;49.214;12.276;2023-04-25T13:54:04;11.00;68.30
48994;DHT22;34804;49.214;12.276;2023-04-25T13:56:31;11.10;67.30
48994;DHT22;34804;49.214;12.276;2023-04-25T13:58:58;11.20;69.30
48994;DHT22;34804;49.214;12.276;2023-04-25T14:01:25;11.30;68.00
48994;DHT22;34804;49.214;12.276;2023-04-25T14:03:52;11.40;66.00
48994;DHT22;34804;49.214;12.276;2023-04-25T14:06:21;12.00;67.00
48994;DHT22;34804;49.214;12.276;2023-04-25T14:08:51;12.30;63.70
48994;DHT22;34804;49.214;12.276;2023-04-25T14:11:18;12.20;63.60
48994;DHT22;34804;49.214;12.276;2023-04-25T14:13:46;12.30;58.80
48994;DHT22;34804;49.214;12.276;2023-04-25T14:16:15;13.10;56.90
48994;DHT22;34804;49.214;12.276;2023-04-25T14:18:43;13.60;54.90
48994;DHT22;34804;49.214;12.276;2023-04-25T14:21:09;14.40;52.90
48994;DHT22;34804;49.214;12.276;2023-04-25T14:23:37;14.80;51.50
48994;DHT22;34804;49.214;12.276;2023-04-25T14:26:04;14.60;52.80
48994;DHT22;34804;49.214;12.276;2023-04-25T14:28:31;13.40;54.50
48994;DHT22;34804;49.214;12.276;2023-04-25T14:30:59;12.60;55.30
48994;DHT22;34804;49.214;12.276;2023-04-25T14:33:27;11.80;59.20
48994;DHT22;34804;49.214;12.276;2023-04-25T14:35:54;11.50;61.00
48994;DHT22;34804;49.214;12.276;2023-04-25T14:38:21;11.60;60.00
48994;DHT22;34804;49.214;12.276;2023-04-25T14:40:49;11.80;61.00
48994;DHT22;34804;49.214;12.276;2023-04-25T14:43:16;12.50;56.50
48994;DHT22;34804;49.214;12.276;2023-04-25T14:45:44;12.80;52.00
48994;DHT22;34804;49.214;12.276;2023-04-25T14:48:12;12.80;55.20
48994;DHT22;34804;49.214;12.276;2023-04-25T14:50:39;12.60;53.70
48994;DHT22;34804;49.214;12.276;2023-04-25T14:53:06;12.20;54.80
48994;DHT22;34804;49.214;12.276;2023-04-25T14:55:33;12.30;54.50
48994;DHT22;34804;49.214;12.276;2023-04-25T14:58:00;12.30;54.70
48994;DHT22;34804;49.214;12.276;2023-04-25T15:00:27;12.30;54.80
48994;DHT22;34804;49.214;12.276;2023-04-25T15:02:56;12.60;56.80
48994;DHT22;34804;49.214;12.276;2023-04-25T15:05:23;12.80;53.80
48994;DHT22;34804;49.214;12.276;2023-04-25T15:07:50;13.30;50.60
48994;DHT22;34804;49.214;12.276;2023-04-25T15:10:18;13.50;51.00
48994;DHT22;34804;49.214;12.276;2023-04-25T15:12:45;12.70;50.90
48994;DHT22;34804;49.214;12.276;2023-04-25T15:15:13;12.20;52.90
48994;DHT22;34804;49.214;12.276;2023-04-25T15:17:51;12.10;55.10
48994;DHT22;34804;49.214;12.276;2023-04-25T15:20:18;11.90;56.10
48994;DHT22;34804;49.214;12.276;2023-04-25T15:22:45;11.80;54.00
48994;DHT22;34804;49.214;12.276;2023-04-25T15:25:12;11.90;55.30
48994;DHT22;34804;49.214;12.276;2023-04-25T15:27:39;12.10;56.10
48994;DHT22;34804;49.214;12.276;2023-04-25T15:30:17;12.80;55.20
48994;DHT22;34804;49.214;12.276;2023-04-25T15:32:45;12.90;53.20
48994;DHT22;34804;49.214;12.276;2023-04-25T15:35:14;12.30;55.90
48994;DHT22;34804;49.214;12.276;2023-04-25T15:37:41;12.10;56.80
48994;DHT22;34804;49.214;12.276;2023-04-25T15:40:16;11.70;56.40
48994;DHT22;34804;49.214;12.276;2023-04-25T15:42:45;11.40;56.30
48994;DHT22;34804;49.214;12.276;2023-04-25T15:45:18;11.20;56.60
48994;DHT22;34804;49.214;12.276;2023-04-25T15:47:45;10.90;57.40